Main page
METAR-TAF:

METAR-TAF

Airports :

Forlì Airport

Forlì, Italy

latitude: 44-12N, longitude: 012-04E, elevation: 27 m

Current weather observation

The report was made 44 minutes ago, at 16:50 UTC
Wind 10 kt from the West
Temperature 25°C
Humidity 41%
Pressure 1015 hPa
Visibility 10 km or more
Few clouds at a height of 3000 ft

METAR: LIPK 141650Z 26010KT 9999 FEW030 25/11 Q1015

Time: 19:34 (17:34 UTC)

Forecast

The report was made 6 hours and 34 minutes ago, at 11:00 UTC
Forecast valid from 14 at 12 UTC to 15 at 12 UTC
Wind 17 kt from the West/Southwest
Visibility 10 km or more
Scattered clouds at a height of 3000 ft
Becoming
from 14 at 18 UTC to 14 at 20 UTC
Wind 7 kt from the West/Southwest

TAF: LIPK 141100Z 1412/1512 24017KT 9999 SCT030 BECMG 1418/1420 24007KT

Weather observations and forecasts of more than 4000 airports (METAR and TAF reports).

The available stations are represented by yellow and red dots on the map.

Hover mouse over dot to see the name of the station.

Then click to see weather observations and forecasts.

To change the map : click on the green buttons with a black cross to zoom in, on the green button with a dash to zoom out, or on the green arrows for adjacent maps.


METAR-TAF: